Time;durP1;ratioP1;P1;durP2;ratioP2;P2;SDS_P1;SDS_P2;PMS_P1;PMS_P2;Temp;Humidity;BMP_temperature;BMP_pressure;BME280_temperature;BME280_humidity;BME280_pressure;Samples;Min_cycle;Max_cycle;Signal;HPM_P1;HPM_P2
2023/01/09 00:01:41;;;;;;;0.73;0.73;;;;;;;;;;5115601;28;20223;-90
2023/01/09 00:04:09;;;;;;;0.80;0.80;;;;;;;;;;5116117;28;20295;-89
2023/01/09 00:06:38;;;;;;;0.60;0.60;;;;;;;;;;5115381;28;20311;-89
2023/01/09 00:09:06;;;;;;;0.60;0.60;;;;;;;;;;5115704;28;20218;-89
2023/01/09 00:11:34;;;;;;;1.58;0.63;;;;;;;;;;5115628;28;20279;-89
2023/01/09 00:14:02;;;;;;;0.65;0.65;;;;;;;;;;5114974;28;20202;-90
2023/01/09 00:16:29;;;;;;;0.85;0.70;;;;;;;;;;5115570;28;20227;-90
2023/01/09 00:18:59;;;;;;;0.77;0.77;;;;;;;;;;5114705;28;20218;-89
2023/01/09 00:21:27;;;;;;;0.85;0.85;;;;;;;;;;5115508;28;20235;-89
2023/01/09 00:23:55;;;;;;;0.90;0.90;;;;;;;;;;5115093;28;20282;-89
2023/01/09 00:26:23;;;;;;;0.80;0.80;;;;;;;;;;5115214;28;20334;-90
2023/01/09 00:28:53;;;;;;;1.20;0.98;;;;;;;;;;5114310;28;20218;-88
2023/01/09 00:31:21;;;;;;;0.82;0.82;;;;;;;;;;5114914;28;20228;-89
2023/01/09 00:33:55;;;;;;;0.98;0.98;;;;;;;;;;5114720;28;20635;-89
2023/01/09 00:36:24;;;;;;;0.90;0.90;;;;;;;;;;5114536;28;20214;-89
2023/01/09 00:38:51;;;;;;;0.80;0.80;;;;;;;;;;5114240;28;20196;-89
2023/01/09 00:41:23;;;;;;;0.80;0.80;;;;;;;;;;5113981;28;20208;-89
2023/01/09 00:43:53;;;;;;;0.80;0.80;;;;;;;;;;5114712;28;20200;-89
2023/01/09 00:46:25;;;;;;;1.05;1.00;;;;;;;;;;5114686;28;20657;-89
2023/01/09 00:48:52;;;;;;;1.10;1.00;;;;;;;;;;5113292;28;20236;-89
2023/01/09 00:51:21;;;;;;;1.55;0.75;;;;;;;;;;5113758;28;20808;-88
2023/01/09 00:53:50;;;;;;;1.08;1.08;;;;;;;;;;5114216;28;20210;-88
2023/01/09 00:56:20;;;;;;;1.13;1.13;;;;;;;;;;5113755;28;20290;-89
2023/01/09 00:58:48;;;;;;;1.00;1.00;;;;;;;;;;5113079;28;20370;-89
2023/01/09 01:01:16;;;;;;;0.73;0.73;;;;;;;;;;5113028;28;20310;-88
2023/01/09 01:03:43;;;;;;;0.73;0.73;;;;;;;;;;5113707;28;20302;-88
2023/01/09 01:08:57;;;;;;;1.02;1.02;;;;;;;;;;5113365;28;20222;-89
2023/01/09 01:11:25;;;;;;;0.90;0.90;;;;;;;;;;5113150;28;20303;-88
2023/01/09 01:13:53;;;;;;;1.30;1.20;;;;;;;;;;5113198;28;20204;-88
2023/01/09 01:16:21;;;;;;;0.80;0.80;;;;;;;;;;5113427;28;20282;-88
2023/01/09 01:18:49;;;;;;;1.00;0.80;;;;;;;;;;5112949;28;20294;-88
2023/01/09 01:21:17;;;;;;;1.02;1.02;;;;;;;;;;5113219;28;20659;-88
2023/01/09 01:23:44;;;;;;;0.93;0.93;;;;;;;;;;5113416;28;20206;-89
2023/01/09 01:26:15;;;;;;;1.10;1.00;;;;;;;;;;5112961;28;20219;-88
2023/01/09 01:28:43;;;;;;;0.95;0.95;;;;;;;;;;5112684;28;20192;-88
2023/01/09 01:31:18;;;;;;;0.80;0.80;;;;;;;;;;5112999;28;20300;-88
2023/01/09 01:33:45;;;;;;;1.15;1.10;;;;;;;;;;5112895;28;20619;-88
2023/01/09 01:36:15;;;;;;;1.00;1.00;;;;;;;;;;5112853;28;20196;-87
2023/01/09 01:38:42;;;;;;;1.05;1.05;;;;;;;;;;5112258;28;20245;-88
2023/01/09 01:41:10;;;;;;;0.90;0.90;;;;;;;;;;5111878;28;20782;-89
2023/01/09 01:43:53;;;;;;;1.13;1.10;;;;;;;;;;5112497;28;20200;-88
2023/01/09 01:46:21;;;;;;;0.80;0.80;;;;;;;;;;5112707;28;20227;-88
2023/01/09 01:48:52;;;;;;;1.40;1.33;;;;;;;;;;5111401;28;20652;-87
2023/01/09 01:51:20;;;;;;;1.50;1.40;;;;;;;;;;5112309;28;20226;-88
2023/01/09 01:53:52;;;;;;;1.83;1.73;;;;;;;;;;5112332;28;20278;-88
2023/01/09 01:56:23;;;;;;;1.10;1.10;;;;;;;;;;5112792;28;20207;-88
2023/01/09 01:58:56;;;;;;;1.00;1.00;;;;;;;;;;5110916;28;20592;-89
2023/01/09 02:01:25;;;;;;;1.25;1.15;;;;;;;;;;5132710;27;20229;-88
2023/01/09 02:03:54;;;;;;;1.60;1.40;;;;;;;;;;5132952;27;20638;-88
2023/01/09 02:06:22;;;;;;;1.00;1.00;;;;;;;;;;5132840;27;20877;-88
2023/01/09 02:08:50;;;;;;;1.60;1.48;;;;;;;;;;5130385;27;20238;-89
2023/01/09 02:11:19;;;;;;;1.70;1.33;;;;;;;;;;5132844;27;20570;-88
2023/01/09 02:13:46;;;;;;;1.08;1.00;;;;;;;;;;5131792;27;20278;-88
2023/01/09 02:16:31;;;;;;;1.30;1.20;;;;;;;;;;5132723;27;20282;-89
2023/01/09 02:19:06;;;;;;;1.63;1.20;;;;;;;;;;5123916;27;20742;-88
2023/01/09 02:21:44;;;;;;;1.23;1.17;;;;;;;;;;5116966;28;20235;-88
2023/01/09 02:24:36;;;;;;;1.00;1.00;;;;;;;;;;5111499;28;20671;-87
2023/01/09 02:27:39;;;;;;;1.67;1.10;;;;;;;;;;5112199;28;20302;-89
2023/01/09 02:30:29;;;;;;;1.10;1.10;;;;;;;;;;5111540;28;20223;-88
2023/01/09 02:33:25;;;;;;;1.15;1.10;;;;;;;;;;5112744;28;20207;-88
2023/01/09 02:36:11;;;;;;;0.95;0.90;;;;;;;;;;5111955;28;20207;-88
2023/01/09 02:38:48;;;;;;;0.80;0.80;;;;;;;;;;5111757;28;20199;-88
2023/01/09 02:41:20;;;;;;;0.73;0.73;;;;;;;;;;5111809;28;20211;-88
2023/01/09 02:43:48;;;;;;;0.90;0.80;;;;;;;;;;5112177;28;20210;-88
2023/01/09 02:46:21;;;;;;;0.85;0.85;;;;;;;;;;5111931;28;20290;-88
2023/01/09 02:48:51;;;;;;;0.70;0.70;;;;;;;;;;5111850;28;20276;-88
2023/01/09 02:51:24;;;;;;;0.88;0.88;;;;;;;;;;5111721;28;20223;-88
2023/01/09 02:54:08;;;;;;;0.80;0.80;;;;;;;;;;5112210;28;20210;-88
2023/01/09 02:57:10;;;;;;;0.70;0.70;;;;;;;;;;5112009;28;20200;-88
2023/01/09 02:59:48;;;;;;;0.98;0.90;;;;;;;;;;5111272;28;20203;-87
2023/01/09 03:02:37;;;;;;;0.60;0.60;;;;;;;;;;5112251;28;20218;-88
2023/01/09 03:05:09;;;;;;;0.50;0.50;;;;;;;;;;5111934;28;20654;-88
2023/01/09 03:07:39;;;;;;;0.80;0.80;;;;;;;;;;5111827;28;20318;-88
2023/01/09 03:10:12;;;;;;;0.85;0.85;;;;;;;;;;5111256;28;20729;-88
2023/01/09 03:12:41;;;;;;;0.82;0.82;;;;;;;;;;5112019;28;20279;-88
2023/01/09 03:15:12;;;;;;;0.50;0.50;;;;;;;;;;5111679;28;20290;-88
2023/01/09 03:17:45;;;;;;;0.70;0.70;;;;;;;;;;5111978;28;20219;-88
2023/01/09 03:20:16;;;;;;;0.60;0.60;;;;;;;;;;5111620;28;20322;-88
2023/01/09 03:22:53;;;;;;;0.73;0.73;;;;;;;;;;5111492;28;20303;-87
2023/01/09 03:25:20;;;;;;;0.57;0.57;;;;;;;;;;5112105;28;20191;-88
2023/01/09 03:27:55;;;;;;;0.50;0.50;;;;;;;;;;5113151;28;20619;-88
2023/01/09 03:30:23;;;;;;;0.57;0.57;;;;;;;;;;5115684;28;20234;-87
2023/01/09 03:32:52;;;;;;;0.70;0.70;;;;;;;;;;5116098;28;20203;-88
2023/01/09 03:35:19;;;;;;;0.50;0.50;;;;;;;;;;5115393;28;20664;-88
2023/01/09 03:37:47;;;;;;;0.68;0.68;;;;;;;;;;5115836;27;20282;-88
2023/01/09 03:40:14;;;;;;;0.50;0.50;;;;;;;;;;5115105;28;20216;-88
2023/01/09 03:42:42;;;;;;;0.52;0.52;;;;;;;;;;5115523;28;20287;-88
2023/01/09 03:45:10;;;;;;;0.50;0.50;;;;;;;;;;5115764;28;20200;-87
2023/01/09 03:47:38;;;;;;;0.55;0.52;;;;;;;;;;5115316;28;20598;-87
2023/01/09 03:50:09;;;;;;;0.60;0.60;;;;;;;;;;5114693;28;20287;-88
2023/01/09 03:52:36;;;;;;;0.50;0.50;;;;;;;;;;5115665;28;20701;-88
2023/01/09 03:55:04;;;;;;;0.50;0.50;;;;;;;;;;5115880;28;20234;-88
2023/01/09 03:57:32;;;;;;;0.60;0.60;;;;;;;;;;5115424;28;20204;-88
2023/01/09 03:59:59;;;;;;;0.60;0.60;;;;;;;;;;5114548;27;20294;-88
2023/01/09 04:02:27;;;;;;;0.70;0.70;;;;;;;;;;5115788;28;20290;-88
2023/01/09 04:04:55;;;;;;;0.43;0.43;;;;;;;;;;5115604;28;20636;-88
2023/01/09 04:07:23;;;;;;;0.65;0.65;;;;;;;;;;5115368;28;20291;-87
2023/01/09 04:09:51;;;;;;;0.47;0.47;;;;;;;;;;5113227;28;20234;-88
2023/01/09 04:12:18;;;;;;;0.40;0.40;;;;;;;;;;5115300;28;20279;-88
2023/01/09 04:14:46;;;;;;;0.38;0.38;;;;;;;;;;5115125;28;20303;-88
2023/01/09 04:17:15;;;;;;;0.43;0.43;;;;;;;;;;5115483;28;20239;-89
2023/01/09 04:19:42;;;;;;;0.40;0.40;;;;;;;;;;5114753;28;20216;-88
2023/01/09 04:22:10;;;;;;;0.55;0.55;;;;;;;;;;5115411;28;20391;-88
2023/01/09 04:24:39;;;;;;;0.30;0.30;;;;;;;;;;5115529;28;20234;-88
2023/01/09 04:27:06;;;;;;;0.32;0.32;;;;;;;;;;5115904;28;20286;-88
2023/01/09 04:29:34;;;;;;;0.40;0.40;;;;;;;;;;5114349;28;20699;-88
2023/01/09 04:32:01;;;;;;;0.30;0.30;;;;;;;;;;5115757;28;20228;-89
2023/01/09 04:34:29;;;;;;;0.30;0.30;;;;;;;;;;5115187;28;20699;-87
2023/01/09 04:36:56;;;;;;;0.30;0.30;;;;;;;;;;5115473;28;20591;-88
2023/01/09 04:39:24;;;;;;;0.20;0.20;;;;;;;;;;5114808;28;20207;-88
2023/01/09 04:41:53;;;;;;;0.40;0.40;;;;;;;;;;5115168;28;20239;-89
2023/01/09 04:44:25;;;;;;;0.30;0.30;;;;;;;;;;5115056;28;20210;-89
2023/01/09 04:46:53;;;;;;;0.50;0.50;;;;;;;;;;5115586;28;20544;-89
2023/01/09 04:49:21;;;;;;;0.28;0.28;;;;;;;;;;5114513;28;20258;-89
2023/01/09 04:51:48;;;;;;;0.28;0.28;;;;;;;;;;5115239;28;20310;-89
2023/01/09 04:54:16;;;;;;;0.30;0.30;;;;;;;;;;5114837;28;20227;-89
2023/01/09 04:56:44;;;;;;;0.28;0.28;;;;;;;;;;5115204;28;20278;-88
2023/01/09 04:59:13;;;;;;;0.40;0.40;;;;;;;;;;5114597;28;20234;-89
2023/01/09 05:01:41;;;;;;;0.70;0.70;;;;;;;;;;5114704;28;20919;-88
2023/01/09 05:04:09;;;;;;;0.40;0.40;;;;;;;;;;5115252;28;20286;-89
2023/01/09 05:06:37;;;;;;;0.30;0.30;;;;;;;;;;5114811;28;20267;-89
2023/01/09 05:09:05;;;;;;;0.47;0.47;;;;;;;;;;5114499;28;20254;-90
2023/01/09 05:11:33;;;;;;;0.40;0.40;;;;;;;;;;5114804;28;20245;-89
2023/01/09 05:14:00;;;;;;;0.47;0.47;;;;;;;;;;5114552;28;20674;-88
2023/01/09 05:16:30;;;;;;;0.40;0.40;;;;;;;;;;5114531;28;20286;-89
2023/01/09 05:18:59;;;;;;;0.30;0.30;;;;;;;;;;5113929;28;20223;-89
2023/01/09 05:21:27;;;;;;;0.40;0.40;;;;;;;;;;5114789;28;20227;-89
2023/01/09 05:23:55;;;;;;;0.30;0.30;;;;;;;;;;5113926;28;20203;-89
2023/01/09 05:26:23;;;;;;;0.30;0.30;;;;;;;;;;5114982;28;20658;-89
2023/01/09 05:28:51;;;;;;;0.93;0.52;;;;;;;;;;5113928;28;20232;-89
2023/01/09 05:31:19;;;;;;;0.57;0.57;;;;;;;;;;5113827;28;20224;-88
2023/01/09 05:33:48;;;;;;;0.40;0.40;;;;;;;;;;5114042;28;20238;-89
2023/01/09 05:36:16;;;;;;;0.80;0.45;;;;;;;;;;5113654;28;20660;-89
2023/01/09 05:38:43;;;;;;;0.40;0.40;;;;;;;;;;5113272;28;20717;-89
2023/01/09 05:41:11;;;;;;;0.45;0.45;;;;;;;;;;5113566;28;20298;-89
2023/01/09 05:43:38;;;;;;;0.40;0.40;;;;;;;;;;5114933;28;20282;-90
2023/01/09 05:46:10;;;;;;;0.47;0.47;;;;;;;;;;5115314;28;20719;-89
2023/01/09 05:48:37;;;;;;;0.70;0.60;;;;;;;;;;5124430;27;20725;-89
2023/01/09 05:51:06;;;;;;;0.57;0.57;;;;;;;;;;5135340;27;20253;-89
2023/01/09 05:53:34;;;;;;;0.50;0.50;;;;;;;;;;5136111;27;20234;-89
2023/01/09 05:56:02;;;;;;;1.05;0.60;;;;;;;;;;5135901;27;20274;-89
2023/01/09 05:58:29;;;;;;;0.32;0.32;;;;;;;;;;5135530;27;20634;-89
2023/01/09 06:00:58;;;;;;;0.40;0.40;;;;;;;;;;5135660;27;20322;-89
2023/01/09 06:03:25;;;;;;;0.47;0.47;;;;;;;;;;5135397;27;20229;-90
2023/01/09 06:05:53;;;;;;;0.60;0.60;;;;;;;;;;5135750;27;20797;-90
2023/01/09 06:08:22;;;;;;;0.50;0.50;;;;;;;;;;5135228;27;20518;-89
2023/01/09 06:10:49;;;;;;;0.40;0.40;;;;;;;;;;5135702;27;20690;-88
2023/01/09 06:13:17;;;;;;;0.40;0.40;;;;;;;;;;5136553;27;20565;-88
2023/01/09 06:15:44;;;;;;;1.45;0.55;;;;;;;;;;5137508;27;20674;-87
2023/01/09 06:18:12;;;;;;;0.43;0.43;;;;;;;;;;5132795;27;20241;-87
2023/01/09 06:20:39;;;;;;;0.50;0.50;;;;;;;;;;5132064;27;20300;-88
2023/01/09 06:23:07;;;;;;;0.43;0.43;;;;;;;;;;5136568;28;20197;-88
2023/01/09 06:25:36;;;;;;;0.60;0.60;;;;;;;;;;5135357;28;20286;-87
2023/01/09 06:28:03;;;;;;;0.40;0.40;;;;;;;;;;5135263;27;20642;-88
2023/01/09 06:30:31;;;;;;;0.70;0.70;;;;;;;;;;5136838;28;20218;-88
2023/01/09 06:32:58;;;;;;;0.85;0.77;;;;;;;;;;5137919;28;20199;-88
2023/01/09 06:35:26;;;;;;;0.40;0.40;;;;;;;;;;5137239;28;20596;-88
2023/01/09 06:37:53;;;;;;;0.70;0.70;;;;;;;;;;5142636;28;20660;-87
2023/01/09 06:40:21;;;;;;;0.50;0.50;;;;;;;;;;5140883;28;20309;-88
2023/01/09 06:42:50;;;;;;;0.50;0.50;;;;;;;;;;5137496;28;20229;-86
2023/01/09 06:45:17;;;;;;;0.60;0.60;;;;;;;;;;5135530;28;20230;-89
2023/01/09 06:47:45;;;;;;;0.50;0.50;;;;;;;;;;5135702;28;20282;-87
2023/01/09 06:50:13;;;;;;;0.52;0.52;;;;;;;;;;5117030;28;20703;-87
2023/01/09 06:52:41;;;;;;;0.57;0.50;;;;;;;;;;5116336;28;20231;-87
2023/01/09 06:55:09;;;;;;;0.50;0.50;;;;;;;;;;5116687;28;20303;-87
2023/01/09 06:57:37;;;;;;;0.60;0.60;;;;;;;;;;5115050;28;20271;-88
2023/01/09 07:00:08;;;;;;;0.35;0.35;;;;;;;;;;5115205;28;20291;-87
2023/01/09 07:02:35;;;;;;;0.77;0.77;;;;;;;;;;5117354;28;20678;-87
2023/01/09 07:05:06;;;;;;;0.90;0.90;;;;;;;;;;5120449;28;20283;-87
2023/01/09 07:07:34;;;;;;;0.77;0.77;;;;;;;;;;5120552;28;20203;-87
2023/01/09 07:10:01;;;;;;;0.77;0.63;;;;;;;;;;5118264;28;20228;-87
2023/01/09 07:12:28;;;;;;;0.70;0.70;;;;;;;;;;5119509;28;20287;-88
2023/01/09 07:14:56;;;;;;;0.45;0.45;;;;;;;;;;5119826;28;20195;-88
2023/01/09 07:17:25;;;;;;;0.60;0.60;;;;;;;;;;5118764;28;20238;-88
2023/01/09 07:19:52;;;;;;;0.50;0.50;;;;;;;;;;5119645;27;20211;-87
2023/01/09 07:22:20;;;;;;;0.63;0.63;;;;;;;;;;5118046;28;20566;-87
2023/01/09 07:24:47;;;;;;;0.50;0.50;;;;;;;;;;5117903;28;20209;-87
2023/01/09 07:27:15;;;;;;;0.47;0.47;;;;;;;;;;5118484;28;20282;-87
2023/01/09 07:29:42;;;;;;;1.25;0.90;;;;;;;;;;5117486;28;20255;-87
2023/01/09 07:32:10;;;;;;;0.55;0.55;;;;;;;;;;5118187;28;20691;-88
2023/01/09 07:34:39;;;;;;;0.60;0.60;;;;;;;;;;5117265;28;20282;-87
2023/01/09 07:37:06;;;;;;;0.63;0.63;;;;;;;;;;5117953;28;20234;-88
2023/01/09 07:39:34;;;;;;;0.68;0.68;;;;;;;;;;5118104;28;20203;-88
2023/01/09 07:42:01;;;;;;;0.75;0.75;;;;;;;;;;5118582;28;20307;-88
2023/01/09 07:44:29;;;;;;;0.57;0.52;;;;;;;;;;5118663;28;20219;-88
2023/01/09 07:46:57;;;;;;;0.45;0.45;;;;;;;;;;5118105;28;20626;-88
2023/01/09 07:49:24;;;;;;;0.60;0.60;;;;;;;;;;5117355;28;20271;-90
2023/01/09 07:51:53;;;;;;;0.38;0.38;;;;;;;;;;5116941;28;20234;-90
2023/01/09 07:54:20;;;;;;;0.50;0.50;;;;;;;;;;5116468;28;20286;-89
2023/01/09 07:56:48;;;;;;;0.52;0.52;;;;;;;;;;5116309;28;20301;-90
2023/01/09 07:59:16;;;;;;;0.40;0.40;;;;;;;;;;5116384;28;20211;-90
2023/01/09 08:01:43;;;;;;;0.50;0.50;;;;;;;;;;5116713;28;20306;-90
2023/01/09 08:04:11;;;;;;;0.70;0.70;;;;;;;;;;5116216;28;20282;-91
2023/01/09 08:06:38;;;;;;;0.65;0.55;;;;;;;;;;5116641;28;20192;-90
2023/01/09 08:09:07;;;;;;;0.52;0.52;;;;;;;;;;5115922;28;20624;-90
2023/01/09 08:11:35;;;;;;;0.60;0.60;;;;;;;;;;5116492;28;20224;-90
2023/01/09 08:14:02;;;;;;;0.85;0.55;;;;;;;;;;5115574;28;20292;-90
2023/01/09 08:16:30;;;;;;;1.08;0.60;;;;;;;;;;5116023;28;20264;-90
2023/01/09 08:18:57;;;;;;;0.40;0.40;;;;;;;;;;5118334;27;20199;-89
2023/01/09 08:21:25;;;;;;;2.13;0.75;;;;;;;;;;5115902;28;20251;-90
2023/01/09 08:23:53;;;;;;;0.50;0.50;;;;;;;;;;5115988;28;20290;-90
2023/01/09 08:26:23;;;;;;;0.68;0.68;;;;;;;;;;5124484;27;20217;-90
2023/01/09 08:28:50;;;;;;;1.63;1.38;;;;;;;;;;5136319;27;20285;-90
2023/01/09 08:31:18;;;;;;;1.13;0.43;;;;;;;;;;5136248;27;20226;-89
2023/01/09 08:33:45;;;;;;;0.40;0.40;;;;;;;;;;5136882;27;20290;-90
2023/01/09 08:36:13;;;;;;;0.47;0.47;;;;;;;;;;5136542;27;20234;-90
2023/01/09 08:38:41;;;;;;;0.60;0.60;;;;;;;;;;5136020;27;20191;-90
2023/01/09 08:49:22;;;;;;;0.60;0.60;;;;;;;;;;5123972;27;20291;-90
2023/01/09 08:51:49;;;;;;;0.70;0.70;;;;;;;;;;5115588;28;20605;-90
2023/01/09 08:54:17;;;;;;;1.55;0.70;;;;;;;;;;5115934;28;20207;-90
2023/01/09 08:56:44;;;;;;;0.70;0.70;;;;;;;;;;5115883;28;20816;-90
2023/01/09 08:59:14;;;;;;;0.52;0.52;;;;;;;;;;5114463;28;20282;-90
2023/01/09 09:01:41;;;;;;;0.80;0.80;;;;;;;;;;5115892;28;20731;-90
2023/01/09 09:04:09;;;;;;;0.80;0.80;;;;;;;;;;5115481;28;20769;-89
2023/01/09 09:06:36;;;;;;;0.52;0.52;;;;;;;;;;5115692;28;20230;-89
2023/01/09 09:09:05;;;;;;;0.50;0.50;;;;;;;;;;5112091;28;20222;-91
2023/01/09 09:11:33;;;;;;;1.00;0.90;;;;;;;;;;5112885;28;20767;-91
2023/01/09 09:15:11;;;;;;;0.50;0.50;;;;;;;;;;5113432;28;20259;-91
2023/01/09 09:16:50;;;;;;;0.93;0.93;;;;;;;;;;5112751;28;20210;-91
2023/01/09 09:19:17;;;;;;;1.17;0.60;;;;;;;;;;5114602;27;20589;-90
2023/01/09 09:21:45;;;;;;;2.97;0.63;;;;;;;;;;5112802;28;20670;-91
2023/01/09 09:24:13;;;;;;;0.50;0.50;;;;;;;;;;5113224;28;20707;-92
2023/01/09 09:26:40;;;;;;;0.85;0.85;;;;;;;;;;5112823;28;20738;-92
2023/01/09 09:29:08;;;;;;;1.17;0.70;;;;;;;;;;5112489;28;20295;-91
2023/01/09 09:31:38;;;;;;;0.77;0.60;;;;;;;;;;5112952;28;20306;-91
2023/01/09 09:34:07;;;;;;;0.90;0.90;;;;;;;;;;5113017;28;20212;-90
2023/01/09 09:36:35;;;;;;;0.55;0.55;;;;;;;;;;5112573;28;20244;-91
2023/01/09 09:39:06;;;;;;;0.60;0.60;;;;;;;;;;5112650;28;20282;-91
2023/01/09 09:45:03;;;;;;;0.50;0.50;;;;;;;;;;5112405;28;20577;-90
2023/01/09 09:47:52;;;;;;;1.00;0.60;;;;;;;;;;5113323;28;20596;-90
2023/01/09 09:50:36;;;;;;;0.50;0.50;;;;;;;;;;5111654;28;20648;-90
2023/01/09 09:53:10;;;;;;;1.48;1.40;;;;;;;;;;5112572;28;20306;-90
2023/01/09 09:55:39;;;;;;;0.50;0.50;;;;;;;;;;5112558;27;20206;-91
2023/01/09 09:58:15;;;;;;;1.17;1.08;;;;;;;;;;5111740;28;20226;-90
2023/01/09 10:00:43;;;;;;;0.57;0.57;;;;;;;;;;5112085;28;20301;-92
2023/01/09 10:03:17;;;;;;;0.50;0.50;;;;;;;;;;5112208;28;20588;-90
2023/01/09 10:05:47;;;;;;;0.60;0.60;;;;;;;;;;5112266;28;20206;-91
2023/01/09 10:08:24;;;;;;;1.00;0.50;;;;;;;;;;5111513;28;20286;-91
2023/01/09 10:10:54;;;;;;;0.65;0.65;;;;;;;;;;5112131;28;20223;-89
2023/01/09 10:16:36;;;;;;;0.70;0.70;;;;;;;;;;5048941;28;20674;-89
2023/01/09 10:19:18;;;;;;;0.70;0.70;;;;;;;;;;5048200;28;20197;-89
2023/01/09 10:21:52;;;;;;;0.70;0.70;;;;;;;;;;5087818;28;20223;-89
2023/01/09 10:24:34;;;;;;;1.65;0.77;;;;;;;;;;5111929;28;20199;-89
2023/01/09 10:27:07;;;;;;;0.65;0.65;;;;;;;;;;5111945;28;20283;-86
2023/01/09 10:29:45;;;;;;;1.55;1.10;;;;;;;;;;5111057;28;20203;-89
2023/01/09 10:32:45;;;;;;;0.63;0.63;;;;;;;;;;5111900;28;20222;-90
2023/01/09 10:35:37;;;;;;;0.70;0.70;;;;;;;;;;5112622;28;20282;-90
2023/01/09 10:38:07;;;;;;;0.82;0.82;;;;;;;;;;5115572;28;20290;-89
2023/01/09 10:40:39;;;;;;;0.45;0.40;;;;;;;;;;5117154;28;20223;-89
2023/01/09 10:43:13;;;;;;;0.50;0.50;;;;;;;;;;5116379;28;20202;-92
2023/01/09 10:45:45;;;;;;;0.50;0.50;;;;;;;;;;5116078;28;20207;-90
2023/01/09 10:48:22;;;;;;;0.80;0.68;;;;;;;;;;5115206;28;20211;-88
2023/01/09 10:50:52;;;;;;;1.13;0.82;;;;;;;;;;5115678;28;20245;-90
2023/01/09 10:53:26;;;;;;;0.40;0.40;;;;;;;;;;5115537;28;20656;-90
2023/01/09 10:55:56;;;;;;;1.27;0.70;;;;;;;;;;5115759;28;20194;-87
2023/01/09 10:58:24;;;;;;;0.50;0.50;;;;;;;;;;5115222;28;20282;-89
2023/01/09 11:00:52;;;;;;;0.50;0.50;;;;;;;;;;5115646;28;20216;-89
2023/01/09 11:03:22;;;;;;;0.60;0.60;;;;;;;;;;5123270;27;20650;-91
2023/01/09 11:05:53;;;;;;;0.52;0.52;;;;;;;;;;5135728;27;20207;-89
2023/01/09 11:08:29;;;;;;;0.70;0.70;;;;;;;;;;5135303;27;20441;-89
2023/01/09 11:10:59;;;;;;;0.80;0.75;;;;;;;;;;5135780;27;20635;-89
2023/01/09 11:13:30;;;;;;;0.80;0.65;;;;;;;;;;5135915;27;20301;-90
2023/01/09 11:16:05;;;;;;;1.38;0.70;;;;;;;;;;5136027;27;20655;-91
2023/01/09 11:18:34;;;;;;;0.60;0.60;;;;;;;;;;5131294;27;20207;-91
2023/01/09 11:21:27;;;;;;;0.70;0.70;;;;;;;;;;5115687;27;20783;-89
2023/01/09 11:23:57;;;;;;;0.52;0.52;;;;;;;;;;5116031;27;20283;-90
2023/01/09 11:26:27;;;;;;;1.17;1.17;;;;;;;;;;5114987;28;20290;-90
2023/01/09 11:29:07;;;;;;;0.63;0.63;;;;;;;;;;5115023;28;20195;-89
2023/01/09 11:31:35;;;;;;;0.70;0.70;;;;;;;;;;5114818;28;20302;-90
2023/01/09 11:34:03;;;;;;;0.77;0.77;;;;;;;;;;5114897;28;20195;-90
2023/01/09 11:36:31;;;;;;;0.40;0.40;;;;;;;;;;5115422;28;20230;-90
2023/01/09 11:39:02;;;;;;;0.60;0.60;;;;;;;;;;5114197;28;20299;-92
2023/01/09 11:41:33;;;;;;;0.60;0.60;;;;;;;;;;5115639;28;20220;-91
2023/01/09 11:44:01;;;;;;;0.70;0.70;;;;;;;;;;5119331;28;20218;-91
2023/01/09 11:46:42;;;;;;;0.63;0.63;;;;;;;;;;5116421;28;20274;-90
2023/01/09 11:49:22;;;;;;;1.15;0.90;;;;;;;;;;5124480;27;20270;-88
2023/01/09 11:52:18;;;;;;;0.50;0.50;;;;;;;;;;5136598;27;20322;-90
2023/01/09 11:54:50;;;;;;;0.50;0.50;;;;;;;;;;5136711;27;20587;-91
2023/01/09 11:57:18;;;;;;;0.50;0.50;;;;;;;;;;5136653;27;20644;-91
2023/01/09 11:59:49;;;;;;;0.65;0.50;;;;;;;;;;5135492;27;20622;-90
2023/01/09 12:02:50;;;;;;;0.57;0.57;;;;;;;;;;5135511;27;20662;-90
2023/01/09 12:05:29;;;;;;;0.38;0.38;;;;;;;;;;5136703;27;20205;-90
2023/01/09 12:08:39;;;;;;;0.50;0.50;;;;;;;;;;5136732;27;20281;-90
2023/01/09 12:11:22;;;;;;;0.88;0.52;;;;;;;;;;5115290;27;20310;-91
2023/01/09 12:14:19;;;;;;;0.90;0.70;;;;;;;;;;5136247;27;20632;-91
2023/01/09 12:17:00;;;;;;;0.60;0.60;;;;;;;;;;5135535;27;20198;-91
2023/01/09 12:19:52;;;;;;;0.50;0.50;;;;;;;;;;5121579;27;20235;-90
2023/01/09 12:22:27;;;;;;;0.45;0.45;;;;;;;;;;5116312;27;20231;-89
2023/01/09 12:25:22;;;;;;;0.80;0.75;;;;;;;;;;5134745;27;20198;-90
2023/01/09 12:28:30;;;;;;;0.63;0.60;;;;;;;;;;5118970;27;20267;-92
2023/01/09 12:31:08;;;;;;;0.70;0.70;;;;;;;;;;5127253;27;20644;-90
2023/01/09 12:33:42;;;;;;;0.43;0.43;;;;;;;;;;5134521;27;20610;-90
2023/01/09 12:36:17;;;;;;;0.60;0.60;;;;;;;;;;5134488;27;20199;-90
2023/01/09 12:38:51;;;;;;;0.30;0.30;;;;;;;;;;5134215;27;20202;-91
2023/01/09 12:41:46;;;;;;;0.50;0.50;;;;;;;;;;5134722;27;20218;-89
2023/01/09 12:44:34;;;;;;;0.70;0.70;;;;;;;;;;5134833;27;20648;-90
2023/01/09 12:47:17;;;;;;;1.33;0.90;;;;;;;;;;5134960;27;20607;-91
2023/01/09 12:49:52;;;;;;;2.20;1.67;;;;;;;;;;5118842;27;20230;-90
2023/01/09 12:52:23;;;;;;;1.60;1.50;;;;;;;;;;5113938;28;20199;-90
2023/01/09 12:54:55;;;;;;;1.42;1.33;;;;;;;;;;5113775;28;20291;-90
2023/01/09 12:57:32;;;;;;;3.17;2.97;;;;;;;;;;5113648;28;20192;-90
2023/01/09 13:00:06;;;;;;;2.55;2.35;;;;;;;;;;5112301;28;20188;-89
2023/01/09 13:02:39;;;;;;;1.70;1.60;;;;;;;;;;5113441;28;20724;-89
2023/01/09 13:05:14;;;;;;;0.98;0.98;;;;;;;;;;5113249;28;20646;-90
2023/01/09 13:07:46;;;;;;;1.15;1.15;;;;;;;;;;5113757;28;20195;-89
2023/01/09 13:10:20;;;;;;;2.25;1.92;;;;;;;;;;5113928;28;20303;-89
2023/01/09 13:13:05;;;;;;;1.17;1.17;;;;;;;;;;5114863;28;20215;-91
2023/01/09 13:15:39;;;;;;;5.53;5.25;;;;;;;;;;5115771;27;20330;-90
2023/01/09 13:18:14;;;;;;;2.17;2.00;;;;;;;;;;5117301;27;20286;-90
2023/01/09 13:20:46;;;;;;;1.50;1.40;;;;;;;;;;5134634;27;20316;-90
2023/01/09 13:23:21;;;;;;;1.50;1.40;;;;;;;;;;5134644;27;20218;-90
2023/01/09 13:25:53;;;;;;;1.08;1.08;;;;;;;;;;5134414;27;20198;-88
2023/01/09 13:28:28;;;;;;;1.20;1.20;;;;;;;;;;5134109;27;20266;-88
2023/01/09 13:31:49;;;;;;;0.90;0.90;;;;;;;;;;5133555;27;20222;-89
2023/01/09 13:34:20;;;;;;;0.90;0.90;;;;;;;;;;5099512;27;20231;-88
2023/01/09 13:36:52;;;;;;;1.77;1.67;;;;;;;;;;5134545;27;20300;-90
2023/01/09 13:39:24;;;;;;;0.98;0.98;;;;;;;;;;5133553;27;20199;-89
2023/01/09 13:44:42;;;;;;;2.17;2.08;;;;;;;;;;5134051;27;20289;-89
2023/01/09 13:47:21;;;;;;;1.63;1.52;;;;;;;;;;5134190;27;20282;-88
2023/01/09 13:50:05;;;;;;;1.20;1.20;;;;;;;;;;5130695;27;20234;-88
2023/01/09 13:52:36;;;;;;;1.23;1.23;;;;;;;;;;5133784;27;20309;-88
2023/01/09 13:55:34;;;;;;;1.10;1.10;;;;;;;;;;5133538;27;20218;-89
2023/01/09 13:58:23;;;;;;;1.70;0.70;;;;;;;;;;5134553;27;20202;-88
2023/01/09 14:00:56;;;;;;;0.52;0.52;;;;;;;;;;5133206;27;20335;-88
2023/01/09 14:03:31;;;;;;;0.47;0.47;;;;;;;;;;5133628;27;20286;-87
2023/01/09 14:06:29;;;;;;;0.50;0.50;;;;;;;;;;5133706;27;20569;-88
2023/01/09 14:09:18;;;;;;;0.30;0.30;;;;;;;;;;5133327;27;20290;-89
2023/01/09 14:11:47;;;;;;;0.52;0.52;;;;;;;;;;5133704;27;20223;-88
2023/01/09 14:14:27;;;;;;;0.40;0.40;;;;;;;;;;5133424;27;20658;-89
2023/01/09 14:16:55;;;;;;;0.40;0.40;;;;;;;;;;5133651;27;20195;-90
2023/01/09 14:19:36;;;;;;;0.43;0.43;;;;;;;;;;5130358;27;20260;-88
2023/01/09 14:22:06;;;;;;;0.50;0.50;;;;;;;;;;5133413;27;20219;-88
2023/01/09 14:24:41;;;;;;;0.45;0.45;;;;;;;;;;5132995;27;20289;-89
2023/01/09 14:27:51;;;;;;;0.32;0.32;;;;;;;;;;5127673;28;20293;-89
2023/01/09 14:31:02;;;;;;;0.40;0.40;;;;;;;;;;5132443;27;20256;-87
2023/01/09 14:33:31;;;;;;;0.47;0.47;;;;;;;;;;5132676;28;20867;-87
2023/01/09 14:36:13;;;;;;;0.77;0.73;;;;;;;;;;5133035;28;20599;-87
2023/01/09 14:38:44;;;;;;;1.00;0.80;;;;;;;;;;5132952;28;20677;-88
2023/01/09 14:41:56;;;;;;;1.60;0.82;;;;;;;;;;5133355;28;20226;-88
2023/01/09 14:44:26;;;;;;;0.35;0.35;;;;;;;;;;5132907;28;20230;-89
2023/01/09 14:46:54;;;;;;;0.50;0.50;;;;;;;;;;5133188;28;20226;-88
2023/01/09 14:49:35;;;;;;;0.40;0.40;;;;;;;;;;5121076;27;20254;-89
2023/01/09 14:52:13;;;;;;;0.50;0.50;;;;;;;;;;5112998;28;20762;-88
2023/01/09 14:54:43;;;;;;;0.30;0.30;;;;;;;;;;5112161;28;20211;-88
2023/01/09 14:57:28;;;;;;;0.55;0.55;;;;;;;;;;5124451;28;20199;-88
2023/01/09 14:59:58;;;;;;;0.85;0.60;;;;;;;;;;5131894;28;20298;-89
2023/01/09 15:02:27;;;;;;;0.65;0.65;;;;;;;;;;5133065;28;20219;-89
2023/01/09 15:04:55;;;;;;;0.63;0.60;;;;;;;;;;5132887;28;20195;-88
2023/01/09 15:07:29;;;;;;;0.52;0.52;;;;;;;;;;5132967;28;20290;-89
2023/01/09 15:10:01;;;;;;;0.75;0.60;;;;;;;;;;5132651;27;20660;-89
2023/01/09 15:12:29;;;;;;;1.15;0.70;;;;;;;;;;5132928;28;20241;-89
2023/01/09 15:14:59;;;;;;;0.65;0.65;;;;;;;;;;5132766;28;20293;-87
2023/01/09 15:17:30;;;;;;;1.23;0.65;;;;;;;;;;5132792;28;20614;-87
2023/01/09 15:19:59;;;;;;;0.50;0.50;;;;;;;;;;5131984;28;20219;-88
2023/01/09 15:22:33;;;;;;;0.50;0.50;;;;;;;;;;5133040;28;20282;-87
2023/01/09 15:25:22;;;;;;;0.52;0.52;;;;;;;;;;5135635;27;20682;-89
2023/01/09 15:27:50;;;;;;;0.50;0.50;;;;;;;;;;5136189;27;20222;-87
2023/01/09 15:30:23;;;;;;;0.82;0.82;;;;;;;;;;5136243;27;20219;-89
2023/01/09 15:32:52;;;;;;;0.60;0.60;;;;;;;;;;5136412;27;20663;-89
2023/01/09 15:35:20;;;;;;;1.70;1.35;;;;;;;;;;5136359;27;20306;-89